Time;durP1;ratioP1;P1;durP2;ratioP2;P2;SDS_P1;SDS_P2;PMS_P1;PMS_P2;Temp;Humidity;BMP_temperature;BMP_pressure;BME280_temperature;BME280_humidity;BME280_pressure;Samples;Min_cycle;Max_cycle;Signal;HPM_P1;HPM_P2
2023/10/19 00:05:26;;;;;;;;;;;10.90;99.90;;;;;;6716125;88;20076;-79
2023/10/19 00:15:31;;;;;;;;;;;11.10;99.90;;;;;;6716541;88;20098;-78
2023/10/19 00:25:34;;;;;;;;;;;11.30;99.90;;;;;;6707486;88;20040;-80
2023/10/19 00:35:35;;;;;;;;;;;11.40;99.90;;;;;;6717668;88;20140;-80
2023/10/19 00:45:39;;;;;;;;;;;11.40;99.90;;;;;;6702604;88;20060;-79
2023/10/19 00:55:41;;;;;;;;;;;11.30;99.90;;;;;;6692367;88;20060;-79
2023/10/19 01:05:47;;;;;;;;;;;11.30;99.90;;;;;;6694694;88;20081;-80
2023/10/19 01:15:49;;;;;;;;;;;11.30;99.90;;;;;;6695858;88;20064;-79
2023/10/19 01:36:12;;;;;;;;;;;11.20;99.90;;;;;;6684165;88;20134;-79
2023/10/19 01:46:13;;;;;;;;;;;11.20;99.90;;;;;;6699729;88;20078;-78
2023/10/19 01:56:14;;;;;;;;;;;11.20;99.90;;;;;;6702780;88;20523;-80
2023/10/19 02:06:19;;;;;;;;;;;11.20;99.90;;;;;;6721303;88;20068;-79
2023/10/19 02:16:22;;;;;;;;;;;11.20;99.90;;;;;;6712000;88;20066;-80
2023/10/19 02:26:22;;;;;;;;;;;11.00;99.90;;;;;;6699805;88;20056;-80
2023/10/19 02:36:28;;;;;;;;;;;11.10;99.90;;;;;;6714604;88;20660;-79
2023/10/19 02:46:28;;;;;;;;;;;11.30;99.90;;;;;;6704946;88;20106;-79
2023/10/19 02:56:35;;;;;;;;;;;11.60;99.90;;;;;;6725608;88;20192;-79
2023/10/19 03:06:35;;;;;;;;;;;11.80;99.90;;;;;;6731715;88;20049;-79
2023/10/19 03:16:36;;;;;;;;;;;11.90;99.90;;;;;;6715061;88;20156;-79
2023/10/19 03:26:38;;;;;;;;;;;11.90;99.90;;;;;;6719889;88;20074;-80
2023/10/19 03:36:39;;;;;;;;;;;11.90;99.90;;;;;;6720072;88;20064;-80
2023/10/19 03:46:52;;;;;;;;;;;12.10;99.90;;;;;;6721571;88;20076;-80
2023/10/19 03:56:53;;;;;;;;;;;12.10;99.90;;;;;;6705913;88;20280;-78
2023/10/19 04:06:58;;;;;;;;;;;11.90;99.90;;;;;;6712972;88;20611;-80
2023/10/19 04:16:59;;;;;;;;;;;11.70;99.90;;;;;;6713872;88;20085;-79
2023/10/19 04:27:01;;;;;;;;;;;11.70;99.90;;;;;;6707492;88;20098;-81
2023/10/19 04:37:03;;;;;;;;;;;11.90;99.90;;;;;;6730530;88;20089;-81
2023/10/19 04:47:03;;;;;;;;;;;12.30;99.90;;;;;;6721266;88;20103;-82
2023/10/19 04:57:03;;;;;;;;;;;12.40;99.90;;;;;;6703727;88;20129;-79
2023/10/19 05:07:04;;;;;;;;;;;12.50;99.90;;;;;;6686964;89;20679;-79
2023/10/19 05:17:05;;;;;;;;;;;12.60;99.90;;;;;;6692989;88;20179;-79
2023/10/19 05:27:05;;;;;;;;;;;12.80;99.90;;;;;;6709999;88;20063;-78
2023/10/19 05:37:06;;;;;;;;;;;12.90;99.90;;;;;;6689516;88;20084;-80
2023/10/19 05:47:06;;;;;;;;;;;12.90;99.90;;;;;;6696794;88;20101;-80
2023/10/19 06:07:10;;;;;;;;;;;12.90;99.90;;;;;;6691366;88;20170;-80
2023/10/19 06:17:13;;;;;;;;;;;13.00;99.90;;;;;;6701075;88;20068;-80
2023/10/19 06:27:13;;;;;;;;;;;13.10;99.90;;;;;;6702001;88;20118;-80
2023/10/19 06:37:14;;;;;;;;;;;13.30;99.90;;;;;;6693490;88;20192;-78
2023/10/19 06:47:15;;;;;;;;;;;13.40;99.90;;;;;;6678417;89;20105;-78
2023/10/19 06:57:16;;;;;;;;;;;13.40;99.90;;;;;;6684364;88;20092;-78
2023/10/19 07:07:16;;;;;;;;;;;13.40;99.90;;;;;;6677160;88;20119;-78
2023/10/19 07:17:17;;;;;;;;;;;13.50;99.90;;;;;;6679562;89;20138;-78
2023/10/19 07:27:20;;;;;;;;;;;13.70;99.90;;;;;;6679474;89;20057;-78
2023/10/19 07:37:21;;;;;;;;;;;13.70;99.90;;;;;;6671640;89;20061;-78
2023/10/19 07:47:21;;;;;;;;;;;13.80;99.90;;;;;;6675369;89;20134;-79
2023/10/19 07:57:22;;;;;;;;;;;13.90;99.90;;;;;;6679748;89;20045;-78
2023/10/19 08:07:22;;;;;;;;;;;13.90;99.90;;;;;;6694658;88;20090;-78
2023/10/19 08:17:23;;;;;;;;;;;14.10;99.90;;;;;;6687272;88;20077;-77
2023/10/19 08:27:23;;;;;;;;;;;14.40;99.90;;;;;;6681626;88;20655;-78
2023/10/19 08:37:25;;;;;;;;;;;14.80;99.90;;;;;;6685904;88;20069;-78
2023/10/19 08:47:26;;;;;;;;;;;15.30;99.90;;;;;;6683972;88;20510;-77
2023/10/19 08:57:28;;;;;;;;;;;16.00;99.90;;;;;;6678022;89;20085;-79
2023/10/19 09:07:30;;;;;;;;;;;16.90;99.90;;;;;;6682059;88;20063;-80
2023/10/19 09:17:31;;;;;;;;;;;17.50;99.90;;;;;;6682795;89;20090;-80
2023/10/19 09:27:33;;;;;;;;;;;17.60;99.90;;;;;;6685567;88;20093;-81
2023/10/19 09:37:34;;;;;;;;;;;18.60;99.90;;;;;;6682573;88;20091;-81
2023/10/19 09:47:37;;;;;;;;;;;18.80;99.90;;;;;;6682261;88;20052;-78
2023/10/19 09:57:42;;;;;;;;;;;19.50;99.90;;;;;;6681406;88;20111;-80
2023/10/19 10:07:42;;;;;;;;;;;19.80;99.90;;;;;;6683971;88;20063;-78
2023/10/19 10:17:49;;;;;;;;;;;20.60;99.90;;;;;;6683161;88;20060;-78
2023/10/19 10:27:51;;;;;;;;;;;20.20;99.90;;;;;;6682012;88;20055;-78
2023/10/19 10:37:54;;;;;;;;;;;20.30;99.90;;;;;;6682782;88;20227;-79
2023/10/19 10:47:55;;;;;;;;;;;19.60;99.90;;;;;;6683662;88;20081;-77
2023/10/19 10:57:55;;;;;;;;;;;19.10;99.90;;;;;;6674532;88;20640;-78
2023/10/19 11:08:04;;;;;;;;;;;18.60;99.90;;;;;;6675434;88;20098;-77
2023/10/19 11:18:07;;;;;;;;;;;18.10;99.90;;;;;;6678484;89;20060;-76
2023/10/19 11:28:16;;;;;;;;;;;17.80;99.90;;;;;;6679318;89;20055;-80
2023/10/19 11:38:18;;;;;;;;;;;17.80;99.90;;;;;;6674843;89;20061;-79
2023/10/19 11:48:19;;;;;;;;;;;17.60;99.90;;;;;;6678048;89;20123;-80
2023/10/19 11:58:19;;;;;;;;;;;17.40;99.90;;;;;;6697469;77;20456;-78
2023/10/19 12:08:20;;;;;;;;;;;17.30;99.90;;;;;;6698137;88;20068;-79
2023/10/19 12:18:21;;;;;;;;;;;17.20;99.90;;;;;;6696179;88;20584;-78
2023/10/19 12:28:24;;;;;;;;;;;17.20;99.90;;;;;;6697433;88;20188;-78
2023/10/19 12:38:25;;;;;;;;;;;17.20;99.90;;;;;;6695104;88;20127;-78
2023/10/19 12:48:30;;;;;;;;;;;17.10;99.90;;;;;;6690005;88;20084;-78
2023/10/19 12:58:31;;;;;;;;;;;16.80;99.90;;;;;;6693293;88;20092;-79
2023/10/19 13:08:32;;;;;;;;;;;16.70;99.90;;;;;;6695624;88;20142;-78
2023/10/19 13:18:35;;;;;;;;;;;16.60;99.90;;;;;;6704739;88;20088;-79
2023/10/19 13:28:38;;;;;;;;;;;16.50;99.90;;;;;;6700041;88;20067;-80
2023/10/19 13:38:39;;;;;;;;;;;16.40;99.90;;;;;;6691055;88;20096;-80
2023/10/19 13:48:39;;;;;;;;;;;16.40;99.90;;;;;;6688390;88;20518;-83
2023/10/19 13:58:40;;;;;;;;;;;16.30;99.90;;;;;;6693451;88;20107;-80
2023/10/19 14:08:40;;;;;;;;;;;16.20;99.90;;;;;;6686448;88;20165;-79
2023/10/19 14:18:43;;;;;;;;;;;16.10;99.90;;;;;;6683416;88;20770;-77
2023/10/19 14:28:43;;;;;;;;;;;16.10;99.90;;;;;;6682342;88;20067;-77
2023/10/19 14:38:46;;;;;;;;;;;16.10;99.90;;;;;;6692892;88;20091;-77
2023/10/19 14:48:46;;;;;;;;;;;16.10;99.90;;;;;;6692972;88;20289;-78
2023/10/19 14:58:47;;;;;;;;;;;16.30;99.90;;;;;;6699539;88;20056;-78
2023/10/19 15:08:47;;;;;;;;;;;16.40;99.90;;;;;;6698674;88;20125;-77
2023/10/19 15:18:47;;;;;;;;;;;16.80;99.90;;;;;;6696770;88;20071;-79
2023/10/19 15:28:48;;;;;;;;;;;17.00;99.90;;;;;;6702904;88;20135;-79
2023/10/19 15:38:49;;;;;;;;;;;17.00;99.90;;;;;;6700816;88;20149;-78
2023/10/19 15:48:50;;;;;;;;;;;17.40;99.90;;;;;;6706770;88;20549;-79
2023/10/19 15:58:50;;;;;;;;;;;17.20;99.90;;;;;;6704772;88;20099;-80
2023/10/19 16:08:52;;;;;;;;;;;17.00;99.90;;;;;;6713804;88;20060;-81
2023/10/19 16:18:52;;;;;;;;;;;16.50;99.90;;;;;;6703230;88;20071;-79
2023/10/19 16:28:53;;;;;;;;;;;16.20;99.90;;;;;;6700010;88;20051;-79
2023/10/19 16:38:54;;;;;;;;;;;16.00;99.90;;;;;;6698222;88;20487;-81
2023/10/19 16:48:54;;;;;;;;;;;15.90;99.90;;;;;;6699147;88;20152;-78
2023/10/19 16:58:55;;;;;;;;;;;15.70;99.90;;;;;;6695154;88;20097;-79
2023/10/19 17:09:00;;;;;;;;;;;15.70;99.90;;;;;;6700786;88;20088;-78
2023/10/19 17:19:01;;;;;;;;;;;15.60;99.90;;;;;;6696047;88;20051;-78
2023/10/19 17:29:02;;;;;;;;;;;15.30;99.90;;;;;;6696978;88;20063;-77
2023/10/19 17:39:02;;;;;;;;;;;15.30;99.90;;;;;;6696505;88;20077;-77
2023/10/19 17:49:03;;;;;;;;;;;15.30;99.90;;;;;;6695126;88;20059;-76
2023/10/19 17:59:03;;;;;;;;;;;15.10;99.90;;;;;;6696343;88;20146;-77
2023/10/19 18:09:04;;;;;;;;;;;15.10;99.90;;;;;;6698374;88;20088;-79
2023/10/19 18:29:46;;;;;;;;;;;15.00;99.90;;;;;;6672339;88;20108;-79
2023/10/19 18:39:46;;;;;;;;;;;14.90;99.90;;;;;;6674027;89;20150;-79
2023/10/19 18:49:47;;;;;;;;;;;15.00;99.90;;;;;;6677793;89;20442;-79
2023/10/19 18:59:47;;;;;;;;;;;15.00;99.90;;;;;;6663800;89;20053;-79
2023/10/19 19:09:48;;;;;;;;;;;14.90;99.90;;;;;;6666348;89;20175;-79
2023/10/19 19:19:48;;;;;;;;;;;14.90;99.90;;;;;;6662022;89;20162;-77
2023/10/19 19:29:49;;;;;;;;;;;15.10;99.90;;;;;;6660015;89;20074;-77
2023/10/19 19:39:50;;;;;;;;;;;15.10;99.90;;;;;;6671188;89;20053;-79
2023/10/19 19:49:51;;;;;;;;;;;15.10;99.90;;;;;;6671234;89;20587;-81
2023/10/19 19:59:51;;;;;;;;;;;15.10;99.90;;;;;;6670687;89;20407;-81
2023/10/19 20:09:52;;;;;;;;;;;15.00;99.90;;;;;;6662714;89;20579;-78
2023/10/19 20:19:52;;;;;;;;;;;14.90;99.90;;;;;;6668318;89;20065;-78
2023/10/19 20:29:55;;;;;;;;;;;14.80;99.90;;;;;;6671881;89;20123;-79
2023/10/19 20:39:57;;;;;;;;;;;14.80;99.90;;;;;;6670796;89;20278;-80
2023/10/19 20:49:58;;;;;;;;;;;14.80;99.90;;;;;;6668958;89;20193;-78
2023/10/19 20:59:59;;;;;;;;;;;14.80;99.90;;;;;;6670270;89;20073;-79
2023/10/19 21:09:59;;;;;;;;;;;14.90;99.90;;;;;;6666419;89;20062;-80
2023/10/19 21:20:00;;;;;;;;;;;14.90;99.90;;;;;;6668365;89;20599;-79
2023/10/19 21:30:00;;;;;;;;;;;14.90;99.90;;;;;;6676522;88;20549;-79
2023/10/19 21:40:03;;;;;;;;;;;14.90;99.90;;;;;;6671499;89;20105;-80
2023/10/19 21:50:04;;;;;;;;;;;14.90;99.90;;;;;;6666311;89;20103;-80
2023/10/19 22:00:06;;;;;;;;;;;15.00;99.90;;;;;;6670924;89;20202;-79
2023/10/19 22:10:07;;;;;;;;;;;15.10;99.90;;;;;;6673379;89;20551;-79
2023/10/19 22:20:07;;;;;;;;;;;15.20;99.90;;;;;;6671147;89;20158;-79
2023/10/19 22:30:08;;;;;;;;;;;15.10;99.90;;;;;;6670605;89;20044;-80
2023/10/19 22:40:08;;;;;;;;;;;15.20;99.90;;;;;;6670737;89;20119;-80
2023/10/19 22:50:10;;;;;;;;;;;15.10;99.90;;;;;;6667758;89;20150;-79
2023/10/19 23:00:17;;;;;;;;;;;15.20;99.90;;;;;;6678978;89;20103;-79
2023/10/19 23:10:19;;;;;;;;;;;15.10;99.90;;;;;;6679511;89;20134;-80
2023/10/19 23:20:30;;;;;;;;;;;15.10;99.90;;;;;;6671439;89;20145;-82
2023/10/19 23:30:31;;;;;;;;;;;15.10;99.90;;;;;;6656828;89;20066;-77
2023/10/19 23:40:32;;;;;;;;;;;15.10;99.90;;;;;;6652991;89;20504;-77
2023/10/19 23:50:34;;;;;;;;;;;15.10;99.90;;;;;;6672781;89;20057;-78
